createdAt,value
2022-08-18T00:01:42.453Z,70.96
2022-08-18T00:04:21.761Z,71.18
2022-08-18T00:06:59.788Z,71.31
2022-08-18T00:09:32.011Z,71.63
2022-08-18T00:12:03.155Z,71.35
2022-08-18T00:14:30.875Z,71.71
2022-08-18T00:16:58.782Z,71.28
2022-08-18T00:19:46.827Z,72.01
2022-08-18T00:22:18.743Z,72.34
2022-08-18T00:24:49.661Z,73.03
2022-08-18T00:27:21.593Z,73.32
2022-08-18T00:29:50.457Z,73.42
2022-08-18T00:32:26.705Z,73.74
2022-08-18T00:34:54.822Z,73.69
2022-08-18T00:37:23.798Z,73.62
2022-08-18T00:39:53.076Z,73.92
2022-08-18T00:42:30.537Z,73.97
2022-08-18T00:45:02.459Z,74.45
2022-08-18T00:47:41.301Z,74.37
2022-08-18T00:50:19.460Z,73.52
2022-08-18T00:52:58.924Z,73.48
2022-08-18T00:55:27.842Z,73.89
2022-08-18T00:58:03.017Z,74.14
2022-08-18T01:00:30.649Z,73.78
2022-08-18T01:03:03.842Z,73.84
2022-08-18T01:05:41.156Z,75.09
2022-08-18T01:08:12.103Z,75.67
2022-08-18T01:10:41.319Z,76.06
2022-08-18T01:13:09.276Z,76.43
2022-08-18T01:15:37.921Z,76.31
2022-08-18T01:18:29.031Z,75.81
2022-08-18T01:21:40.090Z,76.18
2022-08-18T01:24:12.902Z,76.90
2022-08-18T01:26:50.101Z,77.28
2022-08-18T01:29:19.706Z,77.82
2022-08-18T01:31:57.315Z,77.91
2022-08-18T01:34:28.360Z,77.81
2022-08-18T01:36:56.686Z,77.73
2022-08-18T01:41:27.239Z,77.42
2022-08-18T01:42:14.864Z,78.58
2022-08-18T01:44:42.054Z,78.45
2022-08-18T01:47:12.701Z,78.57
2022-08-18T01:49:43.037Z,78.74
2022-08-18T01:52:21.675Z,78.73
2022-08-18T01:54:50.615Z,78.88
2022-08-18T01:57:20.363Z,78.94
2022-08-18T01:59:47.581Z,79.26
2022-08-18T02:02:27.606Z,79.05
2022-08-18T02:05:02.669Z,79.14
2022-08-18T02:07:35.971Z,79.26
2022-08-18T02:10:07.199Z,79.15
2022-08-18T02:12:41.536Z,79.30
2022-08-18T02:15:10.240Z,78.30
2022-08-18T02:17:43.884Z,78.27
2022-08-18T02:20:15.750Z,79.16
2022-08-18T02:22:44.561Z,79.77
2022-08-18T02:25:13.730Z,79.96
2022-08-18T02:27:40.857Z,79.68
2022-08-18T02:30:13.376Z,80.08
2022-08-18T02:32:41.856Z,80.64
2022-08-18T02:35:11.741Z,80.58
2022-08-18T02:37:42.057Z,80.52
2022-08-18T02:40:14.804Z,80.92
2022-08-18T02:42:43.733Z,80.87
2022-08-18T02:45:12.939Z,80.95
2022-08-18T02:47:40.335Z,80.89
2022-08-18T02:50:11.177Z,80.76
2022-08-18T02:52:40.379Z,80.39
2022-08-18T02:55:08.988Z,80.31
2022-08-18T02:57:36.477Z,81.34
2022-08-18T03:00:04.893Z,81.53
2022-08-18T03:02:32.407Z,81.72
2022-08-18T03:04:59.629Z,81.83
2022-08-18T03:07:26.695Z,82.37
2022-08-18T03:09:53.741Z,82.94
2022-08-18T03:12:20.813Z,82.94
2022-08-18T03:14:47.872Z,83.28
2022-08-18T03:17:15.095Z,83.56
2022-08-18T03:19:45.000Z,83.52
2022-08-18T03:22:27.685Z,83.47
2022-08-18T03:24:57.227Z,83.19
2022-08-18T03:27:24.843Z,83.23
2022-08-18T03:29:52.233Z,83.30
2022-08-18T03:32:19.242Z,82.67
2022-08-18T03:34:46.258Z,82.54
2022-08-18T03:37:16.111Z,82.96
2022-08-18T03:39:43.358Z,82.60
2022-08-18T03:42:10.559Z,81.91
2022-08-18T03:44:37.557Z,81.61
2022-08-18T03:47:10.197Z,81.51
2022-08-18T03:49:37.803Z,81.84
2022-08-18T03:52:10.328Z,81.59
2022-08-18T03:54:38.881Z,81.50
2022-08-18T03:57:09.897Z,81.18
2022-08-18T03:59:38.143Z,80.66
2022-08-18T04:02:05.621Z,81.24
2022-08-18T04:04:32.971Z,81.60
2022-08-18T04:07:10.024Z,81.17
2022-08-18T04:09:38.985Z,81.20
2022-08-18T04:12:16.576Z,81.40
2022-08-18T04:14:49.199Z,82.23
2022-08-18T04:17:29.081Z,82.03
2022-08-18T04:19:56.952Z,82.18
2022-08-18T04:22:26.413Z,81.82
2022-08-18T04:24:54.471Z,81.59
2022-08-18T04:27:22.749Z,81.95
2022-08-18T04:29:50.433Z,83.37
2022-08-18T04:32:19.460Z,83.04
2022-08-18T04:34:46.694Z,83.42
2022-08-18T04:37:15.491Z,83.82
2022-08-18T04:39:44.101Z,84.24
2022-08-18T04:42:11.618Z,84.66
2022-08-18T04:44:38.868Z,83.94
2022-08-18T04:47:13.298Z,83.48
2022-08-18T04:49:40.592Z,83.08
2022-08-18T04:52:40.867Z,82.31
2022-08-18T04:55:10.589Z,82.53
2022-08-18T04:57:38.421Z,82.82
2022-08-18T05:00:08.502Z,82.98
2022-08-18T05:02:35.911Z,82.45
2022-08-18T05:05:04.397Z,82.20
2022-08-18T05:07:32.129Z,80.96
2022-08-18T05:09:59.643Z,80.34
2022-08-18T05:12:27.054Z,80.00
2022-08-18T05:14:57.322Z,79.54
2022-08-18T05:17:29.137Z,79.74
2022-08-18T05:20:01.749Z,80.12
2022-08-18T05:22:31.330Z,79.29
2022-08-18T05:25:00.419Z,79.80
2022-08-18T05:27:36.363Z,79.85
2022-08-18T05:30:07.431Z,79.32
2022-08-18T05:32:49.635Z,79.13
2022-08-18T05:35:30.818Z,79.22
2022-08-18T05:38:13.870Z,78.83
2022-08-18T05:40:43.073Z,79.72
2022-08-18T05:43:11.218Z,79.75
2022-08-18T05:45:41.775Z,79.72
2022-08-18T05:48:09.044Z,80.09
2022-08-18T05:50:37.991Z,79.55
2022-08-18T05:53:17.097Z,78.96
2022-08-18T05:56:23.236Z,78.32
2022-08-18T05:58:55.707Z,78.21
2022-08-18T06:01:41.547Z,77.14
2022-08-18T06:04:23.627Z,77.01
2022-08-18T06:06:52.779Z,75.32
2022-08-18T06:09:51.179Z,75.23
2022-08-18T06:12:40.123Z,75.00
2022-08-18T06:15:27.618Z,75.01
2022-08-18T06:18:26.547Z,73.56
2022-08-18T06:21:19.843Z,73.17
2022-08-18T06:24:34.933Z,70.81
2022-08-18T06:27:14.569Z,70.53
2022-08-18T06:30:07.528Z,69.75
2022-08-18T06:33:29.681Z,69.40
2022-08-18T06:36:32.419Z,67.16
2022-08-18T06:39:23.512Z,66.30
2022-08-18T06:41:53.632Z,65.25
2022-08-18T06:44:45.676Z,65.00
2022-08-18T06:47:16.116Z,65.03
2022-08-18T06:50:21.958Z,64.09
2022-08-18T06:53:02.170Z,64.19
2022-08-18T06:55:40.296Z,63.16
2022-08-18T06:58:27.822Z,62.76
2022-08-18T07:01:04.790Z,62.53
2022-08-18T07:04:04.333Z,61.67
2022-08-18T07:06:32.167Z,61.29
2022-08-18T07:09:21.095Z,60.31
2022-08-18T07:12:10.976Z,60.99
2022-08-18T07:15:05.735Z,61.43
2022-08-18T07:17:42.390Z,60.91
2022-08-18T07:20:24.372Z,60.82
2022-08-18T07:23:00.229Z,58.82
2022-08-18T07:25:44.168Z,58.99
2022-08-18T07:28:34.042Z,58.73
2022-08-18T07:31:19.432Z,58.26
2022-08-18T07:34:38.390Z,57.35
2022-08-18T07:37:29.076Z,56.76
2022-08-18T07:40:14.157Z,54.58
2022-08-18T07:43:06.300Z,55.61
2022-08-18T07:45:42.526Z,55.30
2022-08-18T07:48:37.542Z,54.25
2022-08-18T07:51:20.129Z,54.45
2022-08-18T07:54:50.456Z,54.87
2022-08-18T07:57:42.042Z,54.65
2022-08-18T08:00:41.487Z,54.56
2022-08-18T08:03:16.912Z,54.98
2022-08-18T08:06:00.146Z,55.14
2022-08-18T08:08:39.836Z,53.96
2022-08-18T08:11:13.001Z,53.14
2022-08-18T08:14:07.127Z,53.32
2022-08-18T08:16:48.843Z,53.12
2022-08-18T08:19:58.746Z,54.22
2022-08-18T08:22:40.829Z,53.66
2022-08-18T08:25:46.168Z,54.21
2022-08-18T08:28:35.831Z,53.52
2022-08-18T08:31:37.165Z,54.23
2022-08-18T08:34:37.935Z,54.51
2022-08-18T08:37:14.875Z,51.66
2022-08-18T08:39:59.412Z,52.42
2022-08-18T08:42:45.398Z,50.59
2022-08-18T08:45:23.507Z,47.09
2022-08-18T08:48:20.458Z,41.60
2022-08-18T08:51:23.073Z,38.97
2022-08-18T08:54:24.938Z,37.11
2022-08-18T08:56:56.298Z,35.34
2022-08-18T08:59:25.721Z,36.00
2022-08-18T09:02:27.124Z,36.37
2022-08-18T09:05:49.311Z,38.44
2022-08-18T09:08:48.580Z,39.63
2022-08-18T09:11:45.043Z,40.09
2022-08-18T09:14:33.854Z,39.38
2022-08-18T09:17:38.816Z,37.51
2022-08-18T09:20:37.637Z,37.87
2022-08-18T09:23:10.473Z,34.91
2022-08-18T09:25:43.835Z,34.17
2022-08-18T09:28:19.252Z,34.70
2022-08-18T09:30:49.206Z,34.23
2022-08-18T09:33:22.969Z,35.06
2022-08-18T09:36:13.520Z,36.58
2022-08-18T09:39:18.524Z,36.96
2022-08-18T09:42:07.144Z,36.34
2022-08-18T09:44:47.394Z,37.99
2022-08-18T09:47:21.798Z,37.99
2022-08-18T09:49:57.841Z,39.36
2022-08-18T09:52:48.789Z,39.01
2022-08-18T09:55:19.775Z,38.84
2022-08-18T09:57:47.937Z,40.58
2022-08-18T10:00:28.360Z,40.99
2022-08-18T10:02:56.162Z,40.00
2022-08-18T10:05:31.179Z,41.00
2022-08-18T10:08:05.454Z,41.93
2022-08-18T10:11:01.326Z,42.35
2022-08-18T10:14:06.663Z,41.66
2022-08-18T10:17:15.955Z,41.25
2022-08-18T10:19:48.558Z,41.67
2022-08-18T10:22:43.200Z,43.08
2022-08-18T10:25:22.727Z,42.25
2022-08-18T10:27:55.609Z,43.05
2022-08-18T10:30:30.497Z,42.65
2022-08-18T10:33:17.601Z,43.63
2022-08-18T10:36:03.193Z,43.31
2022-08-18T10:38:49.138Z,43.62
2022-08-18T10:41:26.149Z,43.63
2022-08-18T10:43:57.397Z,43.22
2022-08-18T10:46:46.795Z,43.06
2022-08-18T10:49:14.257Z,43.15
2022-08-18T10:52:03.083Z,43.97
2022-08-18T10:55:22.236Z,44.25
2022-08-18T10:58:04.350Z,44.06
2022-08-18T11:00:50.517Z,43.69
2022-08-18T11:03:56.002Z,44.01
2022-08-18T11:06:25.808Z,43.19
2022-08-18T11:09:00.673Z,42.62
2022-08-18T11:11:53.158Z,40.60
2022-08-18T11:14:30.103Z,40.91
2022-08-18T11:17:19.484Z,41.24
2022-08-18T11:19:50.914Z,41.53
2022-08-18T11:22:32.285Z,41.46
2022-08-18T11:25:03.333Z,41.74
2022-08-18T11:27:35.860Z,41.88
2022-08-18T11:30:06.115Z,41.84
2022-08-18T11:32:42.510Z,42.02
2022-08-18T11:35:36.289Z,42.76
2022-08-18T11:38:12.347Z,42.64
2022-08-18T11:43:40.855Z,44.36
2022-08-18T11:46:38.920Z,44.81
2022-08-18T11:49:44.087Z,46.01
2022-08-18T11:58:12.675Z,48.25
2022-08-18T12:00:46.553Z,47.66
2022-08-18T12:03:31.866Z,48.31
2022-08-18T12:06:19.446Z,48.81
2022-08-18T12:08:57.134Z,48.52
2022-08-18T12:11:32.951Z,48.29
2022-08-18T12:14:31.799Z,48.32
2022-08-18T12:16:57.803Z,48.35
2022-08-18T12:19:30.597Z,48.03
2022-08-18T12:22:00.841Z,47.91
2022-08-18T12:24:36.437Z,48.16
2022-08-18T12:27:20.429Z,48.61
2022-08-18T12:29:50.854Z,48.40
2022-08-18T12:32:47.144Z,49.00
2022-08-18T12:35:11.552Z,49.89
2022-08-18T12:38:00.058Z,50.09
2022-08-18T12:40:29.924Z,49.53
2022-08-18T12:42:57.758Z,49.62
2022-08-18T12:45:27.267Z,49.37
2022-08-18T12:47:54.997Z,48.64
2022-08-18T12:50:30.794Z,48.73
2022-08-18T12:53:00.336Z,49.09
2022-08-18T12:55:31.555Z,49.22
2022-08-18T12:57:59.682Z,49.79
2022-08-18T13:00:28.971Z,50.70
2022-08-18T13:02:57.590Z,50.51
2022-08-18T13:05:26.655Z,51.06
2022-08-18T13:08:04.227Z,50.21
2022-08-18T13:10:45.194Z,50.17
2022-08-18T13:13:15.259Z,50.21
2022-08-18T13:15:44.261Z,50.42
2022-08-18T13:18:28.968Z,50.36
2022-08-18T13:20:58.802Z,50.53
2022-08-18T13:23:30.552Z,50.62
2022-08-18T13:26:02.038Z,50.26
2022-08-18T13:28:36.158Z,51.13
2022-08-18T13:31:23.339Z,50.23
2022-08-18T13:33:58.009Z,49.98
2022-08-18T13:36:45.999Z,50.69
2022-08-18T13:39:24.276Z,49.07
2022-08-18T13:41:53.767Z,49.55
2022-08-18T13:44:22.728Z,49.12
2022-08-18T13:46:56.113Z,48.80
2022-08-18T13:49:30.104Z,47.70
2022-08-18T13:52:00.341Z,47.63
2022-08-18T13:54:35.155Z,47.62
2022-08-18T13:57:05.058Z,47.85
2022-08-18T13:59:34.506Z,47.62
2022-08-18T14:02:05.805Z,47.19
2022-08-18T14:04:36.317Z,48.00
2022-08-18T14:07:09.621Z,48.38
2022-08-18T14:09:38.507Z,48.24
2022-08-18T14:12:23.925Z,47.86
2022-08-18T14:14:55.718Z,47.59
2022-08-18T14:17:27.200Z,47.42
2022-08-18T14:20:15.262Z,47.98
2022-08-18T14:23:12.352Z,48.51
2022-08-18T14:25:59.968Z,49.88
2022-08-18T14:28:31.965Z,50.34
2022-08-18T14:31:03.089Z,51.27
2022-08-18T14:33:51.114Z,49.92
2022-08-18T14:36:20.388Z,49.91
2022-08-18T14:38:58.891Z,51.00
2022-08-18T14:41:27.305Z,51.01
2022-08-18T14:44:13.000Z,51.44
2022-08-18T14:46:52.378Z,51.36
2022-08-18T14:49:28.390Z,51.85
2022-08-18T14:52:00.320Z,51.58
2022-08-18T14:54:30.051Z,51.46
2022-08-18T14:57:01.723Z,51.29
2022-08-18T14:59:34.615Z,51.26
2022-08-18T15:02:11.242Z,51.74
2022-08-18T15:04:55.915Z,52.58
2022-08-18T15:07:24.468Z,52.29
2022-08-18T15:09:51.857Z,52.90
2022-08-18T15:12:39.682Z,52.73
2022-08-18T15:15:12.271Z,53.33
2022-08-18T15:17:49.557Z,53.43
2022-08-18T15:20:28.591Z,54.01
2022-08-18T15:23:24.845Z,53.96
2022-08-18T15:25:56.552Z,54.04
2022-08-18T15:28:27.984Z,54.05
2022-08-18T15:33:42.908Z,54.56
2022-08-18T15:36:10.686Z,54.95
2022-08-18T15:38:43.837Z,55.65
2022-08-18T15:41:26.877Z,55.33
2022-08-18T15:43:55.469Z,55.37
2022-08-18T15:46:24.407Z,55.46
2022-08-18T15:48:54.825Z,54.89
2022-08-18T15:51:22.597Z,55.86
2022-08-18T15:53:50.878Z,56.06
2022-08-18T15:56:22.751Z,56.11
2022-08-18T15:58:53.841Z,56.46
2022-08-18T16:01:32.204Z,56.75
2022-08-18T16:04:02.421Z,57.04
2022-08-18T16:06:32.729Z,57.28
2022-08-18T16:09:01.824Z,57.41
2022-08-18T16:11:30.446Z,57.71
2022-08-18T16:13:59.196Z,57.84
2022-08-18T16:16:35.611Z,56.74
2022-08-18T16:19:05.909Z,57.55
2022-08-18T16:21:34.018Z,57.81
2022-08-18T16:24:01.563Z,58.13
2022-08-18T16:26:29.013Z,57.83
2022-08-18T16:29:00.186Z,57.20
2022-08-18T16:31:29.565Z,57.56
2022-08-18T16:33:57.934Z,58.49
2022-08-18T16:36:26.394Z,58.91
2022-08-18T16:38:56.134Z,58.94
2022-08-18T16:41:26.674Z,58.88
2022-08-18T16:43:54.479Z,59.35
2022-08-18T16:46:26.449Z,59.51
2022-08-18T16:48:58.317Z,59.58
2022-08-18T16:51:27.973Z,60.34
2022-08-18T16:53:55.520Z,60.05
2022-08-18T16:56:26.518Z,60.30
2022-08-18T16:59:13.109Z,60.57
2022-08-18T17:01:59.534Z,61.51
2022-08-18T17:04:33.405Z,61.72
2022-08-18T17:07:03.230Z,62.08
2022-08-18T17:09:31.186Z,62.28
2022-08-18T17:11:59.184Z,62.00
2022-08-18T17:14:30.067Z,62.32
2022-08-18T17:16:58.437Z,62.50
2022-08-18T17:19:31.188Z,63.20
2022-08-18T17:21:59.087Z,63.41
2022-08-18T17:24:31.288Z,63.08
2022-08-18T17:27:16.610Z,63.33
2022-08-18T17:30:07.159Z,63.21
2022-08-18T17:32:46.681Z,63.33
2022-08-18T17:35:26.958Z,63.95
2022-08-18T17:38:22.131Z,64.22
2022-08-18T17:40:54.410Z,64.47
2022-08-18T17:43:24.896Z,65.00
2022-08-18T17:46:10.274Z,64.44
2022-08-18T17:48:44.402Z,64.60
2022-08-18T17:51:34.381Z,65.00
2022-08-18T17:54:27.580Z,65.29
2022-08-18T17:57:01.591Z,65.39
2022-08-18T17:59:51.775Z,65.73
2022-08-18T18:02:29.242Z,65.77
2022-08-18T18:05:06.650Z,65.75
2022-08-18T18:07:53.583Z,65.61
2022-08-18T18:10:51.002Z,65.87
2022-08-18T18:13:32.919Z,65.59
2022-08-18T18:16:20.565Z,65.69
2022-08-18T18:18:59.780Z,65.88
2022-08-18T18:21:58.947Z,66.12
2022-08-18T18:24:17.715Z,66.47
2022-08-18T18:26:52.277Z,66.83
2022-08-18T18:29:33.415Z,67.42
2022-08-18T18:32:39.873Z,67.81
2022-08-18T18:35:16.376Z,68.64
2022-08-18T18:37:57.506Z,69.68
2022-08-18T18:40:50.427Z,69.52
2022-08-18T18:43:25.424Z,70.81
2022-08-18T18:46:25.202Z,71.38
2022-08-18T18:49:10.602Z,72.21
2022-08-18T18:52:06.206Z,73.05
2022-08-18T18:55:14.755Z,73.27
2022-08-18T18:58:07.153Z,73.67
2022-08-18T19:00:55.930Z,74.31
2022-08-18T19:03:48.891Z,75.15
2022-08-18T19:06:34.560Z,76.20
2022-08-18T19:09:16.920Z,77.07
2022-08-18T19:12:05.282Z,77.30
2022-08-18T19:14:59.862Z,77.37
2022-08-18T19:17:51.345Z,77.40
2022-08-18T19:20:27.294Z,77.24
2022-08-18T19:23:06.435Z,76.42
2022-08-18T19:25:41.223Z,76.92
2022-08-18T19:28:30.217Z,76.46
2022-08-18T19:31:02.653Z,76.29
2022-08-18T19:33:44.982Z,76.41
2022-08-18T19:36:39.576Z,76.05
2022-08-18T19:39:46.869Z,76.66
2022-08-18T19:42:22.500Z,76.85
2022-08-18T19:45:16.514Z,75.18
2022-08-18T19:47:52.863Z,75.84
2022-08-18T19:50:32.620Z,75.79
2022-08-18T19:53:15.086Z,76.68
2022-08-18T19:55:54.050Z,77.22
2022-08-18T19:58:35.131Z,77.65
2022-08-18T20:01:21.002Z,78.18
2022-08-18T20:04:01.217Z,78.77
2022-08-18T20:07:01.415Z,79.43
2022-08-18T20:10:02.022Z,80.34
2022-08-18T20:13:10.833Z,81.80
2022-08-18T20:16:05.034Z,82.32
2022-08-18T20:18:48.975Z,82.79
2022-08-18T20:21:22.460Z,83.54
2022-08-18T20:24:05.905Z,83.61
2022-08-18T20:26:39.097Z,84.25
2022-08-18T20:29:11.993Z,84.66
2022-08-18T20:31:45.536Z,85.51
2022-08-18T20:34:15.226Z,86.22
2022-08-18T20:36:45.166Z,87.07
2022-08-18T20:39:33.935Z,87.37
2022-08-18T20:42:02.794Z,87.82
2022-08-18T20:45:03.920Z,88.29
2022-08-18T20:47:49.012Z,88.56
2022-08-18T20:50:59.267Z,88.89
2022-08-18T20:53:57.368Z,88.94
2022-08-18T20:56:43.823Z,90.02
2022-08-18T20:59:22.217Z,89.94
2022-08-18T21:02:07.403Z,90.35
2022-08-18T21:04:47.701Z,89.97
2022-08-18T21:07:37.155Z,90.42
2022-08-18T21:10:22.910Z,90.60
2022-08-18T21:12:53.788Z,91.05
2022-08-18T21:15:28.300Z,91.48
2022-08-18T21:18:00.743Z,91.73
2022-08-18T21:20:29.425Z,91.88
2022-08-18T21:23:09.327Z,93.06
2022-08-18T21:25:40.818Z,93.79
2022-08-18T21:28:08.307Z,94.38
2022-08-18T21:30:35.897Z,94.98
2022-08-18T21:33:20.056Z,95.63
2022-08-18T21:35:47.986Z,96.58
2022-08-18T21:38:24.289Z,97.47
2022-08-18T21:40:57.157Z,98.05
2022-08-18T21:44:01.294Z,97.75
2022-08-18T21:46:30.566Z,98.26
2022-08-18T21:49:00.517Z,98.14
2022-08-18T21:51:31.431Z,98.23
2022-08-18T21:54:00.463Z,98.89
2022-08-18T21:56:31.812Z,99.57
2022-08-18T21:59:14.359Z,100.00
2022-08-18T22:01:51.912Z,100.00
2022-08-18T22:04:26.885Z,100.00
2022-08-18T22:07:00.617Z,100.00
2022-08-18T22:09:50.475Z,100.00
2022-08-18T22:12:55.387Z,100.00
2022-08-18T22:15:41.785Z,100.00
2022-08-18T22:18:18.289Z,100.00
2022-08-18T22:20:56.219Z,100.00
2022-08-18T22:23:58.679Z,100.00
2022-08-18T22:26:36.959Z,100.00
2022-08-18T22:29:07.359Z,100.00
2022-08-18T22:31:50.760Z,100.00
2022-08-18T22:34:27.751Z,100.00
2022-08-18T22:37:16.934Z,100.00
2022-08-18T22:39:53.731Z,100.00
2022-08-18T22:42:24.476Z,100.00
2022-08-18T22:44:52.733Z,100.00
2022-08-18T22:47:21.158Z,100.00
2022-08-18T22:49:48.606Z,100.00
2022-08-18T22:52:33.003Z,100.00
2022-08-18T22:55:07.913Z,100.00
2022-08-18T22:57:37.638Z,100.00
2022-08-18T23:00:14.617Z,100.00
2022-08-18T23:02:42.622Z,100.00
2022-08-18T23:05:10.990Z,100.00
2022-08-18T23:07:38.125Z,100.00
2022-08-18T23:10:13.944Z,100.00
2022-08-18T23:12:43.527Z,100.00
2022-08-18T23:15:11.746Z,100.00
2022-08-18T23:17:41.527Z,100.00
2022-08-18T23:20:18.002Z,100.00
2022-08-18T23:22:46.265Z,100.00
2022-08-18T23:25:14.314Z,100.00
2022-08-18T23:27:42.876Z,100.00
2022-08-18T23:30:10.864Z,100.00
2022-08-18T23:32:37.981Z,100.00
2022-08-18T23:35:05.789Z,100.00
2022-08-18T23:37:33.006Z,100.00
2022-08-18T23:40:00.218Z,100.00
2022-08-18T23:42:27.455Z,100.00
2022-08-18T23:44:58.904Z,100.00
2022-08-18T23:47:26.246Z,100.00
2022-08-18T23:49:54.363Z,100.00
2022-08-18T23:52:21.670Z,100.00
2022-08-18T23:54:48.808Z,100.00
2022-08-18T23:57:15.983Z,100.00
2022-08-18T23:59:43.031Z,100.00
